Time,TemperatureF,DewpointF,PressureIn,WindDirection,WindDirectionDegrees,WindSpeedMPH,WindSpeedGustMPH,Humidity,HourlyPrecipIn,Conditions,Clouds,dailyrainin,SoftwareType,DateUTC
2013-09-16 00:02:00,43.9,41.4,29.35,NE,45,0.0,0.0,91,0.00,RA,,0.00,WeatherDisplay:10.37,2013-09-16 05:02:00,
2013-09-16 00:07:00,43.9,41.4,29.35,NE,45,0.0,0.0,91,0.00,RA,,0.00,WeatherDisplay:10.37,2013-09-16 05:07:00,
2013-09-16 00:12:00,43.2,41.3,29.35,NE,45,0.0,0.0,93,0.00,CLR,,0.00,WeatherDisplay:10.37,2013-09-16 05:12:00,
2013-09-16 00:17:00,43.3,41.7,29.35,North,0,0.0,0.0,94,0.00,CLR,,0.00,WeatherDisplay:10.37,2013-09-16 05:17:00,
2013-09-16 00:22:00,43.2,41.6,29.35,NE,45,0.0,0.0,94,0.00,CLR,,0.00,WeatherDisplay:10.37,2013-09-16 05:22:00,
2013-09-16 00:27:00,43.0,41.6,29.35,NE,45,0.0,0.0,95,0.00,CLR,,0.00,WeatherDisplay:10.37,2013-09-16 05:27:00,
2013-09-16 00:32:00,43.0,41.6,29.36,North,0,0.0,0.0,95,0.00,CLR,,0.00,WeatherDisplay:10.37,2013-09-16 05:32:00,
2013-09-16 00:37:00,43.0,41.6,29.36,North,0,0.0,0.0,95,0.00,CLR,,0.00,WeatherDisplay:10.37,2013-09-16 05:37:00,
2013-09-16 00:42:00,42.8,41.5,29.36,NW,315,0.0,0.0,95,0.00,CLR,,0.00,WeatherDisplay:10.37,2013-09-16 05:42:00,
2013-09-16 00:47:00,42.6,41.3,29.36,North,0,0.0,0.0,95,0.00,CLR,,0.00,WeatherDisplay:10.37,2013-09-16 05:47:00,
2013-09-16 00:52:00,42.6,41.6,29.36,North,0,0.0,0.0,96,0.00,CLR,,0.00,WeatherDisplay:10.37,2013-09-16 05:52:00,
2013-09-16 00:57:00,42.6,41.6,29.36,North,0,0.0,0.0,96,0.00,CLR,,0.00,WeatherDisplay:10.37,2013-09-16 05:57:00,
2013-09-16 01:02:00,42.6,41.6,29.36,North,0,0.0,0.0,96,0.00,CLR,,0.00,WeatherDisplay:10.37,2013-09-16 06:02:00,
2013-09-16 01:07:00,42.6,41.8,29.36,North,0,0.0,0.0,97,0.00,CLR,,0.00,WeatherDisplay:10.37,2013-09-16 06:07:00,
2013-09-16 01:12:00,42.6,41.8,29.36,North,0,0.0,0.0,97,0.00,CLR,,0.00,WeatherDisplay:10.37,2013-09-16 06:12:00,
2013-09-16 01:17:00,42.6,41.8,29.37,North,0,0.0,0.0,97,0.00,CLR,,0.00,WeatherDisplay:10.37,2013-09-16 06:17:00,
2013-09-16 01:22:00,42.4,41.9,29.36,North,0,0.0,0.0,98,0.00,CLR,,0.00,WeatherDisplay:10.37,2013-09-16 06:22:00,
2013-09-16 01:27:00,42.4,41.6,29.36,North,0,0.0,0.0,97,0.00,CLR,,0.00,WeatherDisplay:10.37,2013-09-16 06:27:00,
2013-09-16 01:32:00,42.3,41.5,29.36,North,0,0.0,0.0,97,0.00,CLR,,0.00,WeatherDisplay:10.37,2013-09-16 06:32:00,
2013-09-16 01:37:00,42.1,41.6,29.37,North,0,0.0,0.0,98,0.00,CLR,,0.00,WeatherDisplay:10.37,2013-09-16 06:37:00,
2013-09-16 01:42:00,42.1,41.6,29.37,North,0,0.0,0.0,98,0.00,CLR,,0.00,WeatherDisplay:10.37,2013-09-16 06:42:00,
2013-09-16 01:47:00,42.1,41.6,29.37,North,0,0.0,0.0,98,0.00,CLR,,0.00,WeatherDisplay:10.37,2013-09-16 06:47:00,
2013-09-16 01:52:00,41.9,41.4,29.37,North,0,0.0,0.0,98,0.00,CLR,,0.00,WeatherDisplay:10.37,2013-09-16 06:52:00,
2013-09-16 01:57:00,41.7,41.2,29.37,North,0,0.0,0.0,98,0.00,CLR,,0.00,WeatherDisplay:10.37,2013-09-16 06:57:00,
2013-09-16 02:02:00,41.7,41.2,29.37,NE,45,0.0,0.0,98,0.00,CLR,,0.00,WeatherDisplay:10.37,2013-09-16 07:02:00,
2013-09-16 02:07:00,41.5,41.3,29.37,North,0,0.0,0.0,99,0.00,CLR,,0.00,WeatherDisplay:10.37,2013-09-16 07:07:00,
2013-09-16 02:12:00,41.5,41.3,29.37,North,0,0.0,0.0,99,0.00,CLR,,0.00,WeatherDisplay:10.37,2013-09-16 07:12:00,
2013-09-16 02:17:00,41.5,41.3,29.37,North,0,0.0,0.0,99,0.00,CLR,,0.00,WeatherDisplay:10.37,2013-09-16 07:17:00,
2013-09-16 02:22:00,41.5,41.3,29.37,North,0,0.0,0.0,99,0.00,CLR,,0.00,WeatherDisplay:10.37,2013-09-16 07:22:00,
2013-09-16 02:27:00,41.5,41.3,29.37,North,0,0.0,0.0,99,0.00,CLR,,0.00,WeatherDisplay:10.37,2013-09-16 07:27:00,
2013-09-16 02:32:00,41.5,41.3,29.38,North,0,0.0,0.0,99,0.00,CLR,,0.00,WeatherDisplay:10.37,2013-09-16 07:32:00,
2013-09-16 02:37:00,41.4,41.1,29.38,North,0,0.0,0.0,99,0.00,CLR,,0.00,WeatherDisplay:10.37,2013-09-16 07:37:00,
2013-09-16 02:42:00,41.4,41.1,29.37,North,0,0.0,0.0,99,0.00,CLR,,0.00,WeatherDisplay:10.37,2013-09-16 07:42:00,
2013-09-16 02:47:00,41.4,41.1,29.37,North,0,0.0,0.0,99,0.00,CLR,,0.00,WeatherDisplay:10.37,2013-09-16 07:47:00,
2013-09-16 02:52:00,41.5,41.3,29.38,NE,45,0.0,0.0,99,0.00,CLR,,0.00,WeatherDisplay:10.37,2013-09-16 07:52:00,
2013-09-16 02:57:00,41.4,41.1,29.38,NE,45,0.0,0.0,99,0.00,CLR,,0.00,WeatherDisplay:10.37,2013-09-16 07:57:00,
2013-09-16 03:02:00,41.2,40.9,29.38,North,0,0.0,0.0,99,0.00,CLR,,0.00,WeatherDisplay:10.37,2013-09-16 08:02:00,
2013-09-16 03:07:00,41.2,40.9,29.38,North,0,0.0,0.0,99,0.00,CLR,,0.00,WeatherDisplay:10.37,2013-09-16 08:07:00,
2013-09-16 03:12:00,41.0,40.7,29.38,North,0,0.0,0.0,99,0.00,CLR,,0.00,WeatherDisplay:10.37,2013-09-16 08:12:00,
2013-09-16 03:17:00,41.0,40.7,29.38,North,0,0.0,0.0,99,0.00,CLR,,0.00,WeatherDisplay:10.37,2013-09-16 08:17:00,
2013-09-16 03:22:00,40.8,40.6,29.39,North,0,0.0,0.0,99,0.00,CLR,,0.00,WeatherDisplay:10.37,2013-09-16 08:22:00,
2013-09-16 03:27:00,40.6,40.4,29.38,North,0,0.0,0.0,99,0.00,CLR,,0.00,WeatherDisplay:10.37,2013-09-16 08:27:00,
2013-09-16 03:32:00,40.6,40.4,29.38,NE,45,0.0,0.0,99,0.00,CLR,,0.00,WeatherDisplay:10.37,2013-09-16 08:32:00,
2013-09-16 03:37:00,40.8,40.6,29.38,NE,45,0.0,0.0,99,0.00,CLR,,0.00,WeatherDisplay:10.37,2013-09-16 08:37:00,
2013-09-16 03:42:00,41.0,40.7,29.39,NE,45,0.0,0.0,99,0.00,CLR,,0.00,WeatherDisplay:10.37,2013-09-16 08:42:00,
2013-09-16 03:47:00,41.0,40.7,29.39,North,0,0.0,0.0,99,0.00,CLR,,0.00,WeatherDisplay:10.37,2013-09-16 08:47:00,
2013-09-16 03:52:00,41.0,40.7,29.39,NE,45,0.0,0.0,99,0.00,CLR,,0.00,WeatherDisplay:10.37,2013-09-16 08:52:00,
2013-09-16 03:57:00,41.0,40.7,29.39,North,0,0.0,0.0,99,0.00,CLR,,0.00,WeatherDisplay:10.37,2013-09-16 08:57:00,
2013-09-16 04:02:00,41.0,40.7,29.39,North,0,0.0,0.0,99,0.00,CLR,,0.00,WeatherDisplay:10.37,2013-09-16 09:02:00,
2013-09-16 04:07:00,41.0,40.7,29.39,North,0,0.0,0.0,99,0.00,CLR,,0.00,WeatherDisplay:10.37,2013-09-16 09:07:00,
2013-09-16 04:12:00,40.8,40.6,29.39,North,0,0.0,0.0,99,0.00,CLR,,0.00,WeatherDisplay:10.37,2013-09-16 09:12:00,
2013-09-16 04:17:00,40.5,40.2,29.40,NE,45,0.0,0.0,99,0.00,CLR,,0.00,WeatherDisplay:10.37,2013-09-16 09:17:00,
2013-09-16 04:22:00,40.5,40.2,29.40,North,0,0.0,0.0,99,0.00,CLR,,0.00,WeatherDisplay:10.37,2013-09-16 09:22:00,
2013-09-16 04:27:00,40.5,40.2,29.40,NE,45,0.0,0.0,99,0.00,CLR,,0.00,WeatherDisplay:10.37,2013-09-16 09:27:00,
2013-09-16 04:32:00,40.3,40.0,29.40,North,0,0.0,0.0,99,0.00,CLR,,0.00,WeatherDisplay:10.37,2013-09-16 09:32:00,
2013-09-16 04:37:00,40.3,40.0,29.40,North,0,0.0,0.0,99,0.00,CLR,,0.00,WeatherDisplay:10.37,2013-09-16 09:37:00,
2013-09-16 04:42:00,40.1,39.8,29.41,North,0,0.0,0.0,99,0.00,CLR,,0.00,WeatherDisplay:10.37,2013-09-16 09:42:00,
2013-09-16 04:47:00,39.9,39.7,29.41,NE,45,0.0,0.0,99,0.00,CLR,,0.00,WeatherDisplay:10.37,2013-09-16 09:47:00,
2013-09-16 04:52:00,40.1,39.8,29.41,NE,45,0.0,0.0,99,0.00,CLR,,0.00,WeatherDisplay:10.37,2013-09-16 09:52:00,
2013-09-16 04:57:00,39.9,39.7,29.41,NE,45,0.0,0.0,99,0.00,CLR,,0.00,WeatherDisplay:10.37,2013-09-16 09:57:00,
2013-09-16 05:02:00,39.9,39.7,29.41,NE,45,0.0,0.0,99,0.00,CLR,,0.00,WeatherDisplay:10.37,2013-09-16 10:02:00,
2013-09-16 05:07:00,39.9,39.7,29.41,NE,45,0.0,0.0,99,0.00,CLR,,0.00,WeatherDisplay:10.37,2013-09-16 10:07:00,
2013-09-16 05:12:00,39.6,39.3,29.41,NE,45,0.0,0.0,99,0.00,CLR,,0.00,WeatherDisplay:10.37,2013-09-16 10:12:00,
2013-09-16 05:17:00,39.6,39.3,29.41,North,0,0.0,0.0,99,0.00,CLR,,0.00,WeatherDisplay:10.37,2013-09-16 10:17:00,
2013-09-16 05:22:00,39.4,39.1,29.42,NE,45,0.0,0.0,99,0.00,CLR,,0.00,WeatherDisplay:10.37,2013-09-16 10:22:00,
2013-09-16 05:27:00,39.4,39.1,29.41,NE,45,4.6,4.6,99,0.00,CLR,,0.00,WeatherDisplay:10.37,2013-09-16 10:27:00,
2013-09-16 05:32:00,39.2,38.9,29.41,NE,45,5.8,5.8,99,0.00,CLR,,0.00,WeatherDisplay:10.37,2013-09-16 10:32:00,
2013-09-16 05:37:00,39.2,38.9,29.42,North,0,5.8,5.8,99,0.00,CLR,,0.00,WeatherDisplay:10.37,2013-09-16 10:37:00,
2013-09-16 05:42:00,39.0,38.8,29.42,North,0,5.8,5.8,99,0.00,CLR,,0.00,WeatherDisplay:10.37,2013-09-16 10:42:00,
2013-09-16 05:47:00,39.0,38.8,29.42,NE,45,5.8,5.8,99,0.00,CLR,,0.00,WeatherDisplay:10.37,2013-09-16 10:47:00,
2013-09-16 05:52:00,38.8,38.6,29.42,North,0,5.8,5.8,99,0.00,CLR,,0.00,WeatherDisplay:10.37,2013-09-16 10:52:00,
2013-09-16 05:57:00,38.7,38.4,29.42,NE,45,6.9,6.9,99,0.00,CLR,,0.00,WeatherDisplay:10.37,2013-09-16 10:57:00,
2013-09-16 06:02:00,38.7,38.4,29.42,North,0,5.8,5.8,99,0.00,CLR,,0.00,WeatherDisplay:10.37,2013-09-16 11:02:00,
2013-09-16 06:07:00,38.7,38.4,29.42,North,0,5.8,5.8,99,0.00,CLR,,0.00,WeatherDisplay:10.37,2013-09-16 11:07:00,
2013-09-16 06:12:00,38.7,38.4,29.42,North,0,5.8,5.8,99,0.00,CLR,,0.00,WeatherDisplay:10.37,2013-09-16 11:12:00,
2013-09-16 06:17:00,38.5,38.2,29.42,NE,45,5.8,5.8,99,0.00,CLR,,0.00,WeatherDisplay:10.37,2013-09-16 11:17:00,
2013-09-16 06:22:00,38.7,38.4,29.42,NE,45,8.1,8.1,99,0.00,CLR,,0.00,WeatherDisplay:10.37,2013-09-16 11:22:00,
2013-09-16 06:27:00,38.5,38.2,29.43,NE,45,5.8,5.8,99,0.00,CLR,,0.00,WeatherDisplay:10.37,2013-09-16 11:27:00,
2013-09-16 06:32:00,38.3,38.0,29.43,NE,45,6.9,6.9,99,0.00,CLR,,0.00,WeatherDisplay:10.37,2013-09-16 11:32:00,
2013-09-16 06:37:00,38.3,38.0,29.43,East,90,6.9,6.9,99,0.00,CLR,,0.00,WeatherDisplay:10.37,2013-09-16 11:37:00,
2013-09-16 06:42:00,38.1,37.9,29.43,North,0,6.9,6.9,99,0.00,CLR,,0.00,WeatherDisplay:10.37,2013-09-16 11:42:00,
2013-09-16 06:47:00,38.1,37.9,29.43,North,0,6.9,6.9,99,0.00,CLR,,0.00,WeatherDisplay:10.37,2013-09-16 11:47:00,
2013-09-16 06:52:00,37.9,37.7,29.44,NE,45,6.0,6.0,99,0.00,CLR,,0.00,WeatherDisplay:10.37,2013-09-16 11:52:00,
2013-09-16 06:57:00,37.9,37.7,29.43,NE,45,6.9,6.9,99,0.00,CLR,,0.00,WeatherDisplay:10.37,2013-09-16 11:57:00,
2013-09-16 07:02:00,37.9,37.7,29.44,North,0,6.9,6.9,99,0.00,CLR,,0.00,WeatherDisplay:10.37,2013-09-16 12:02:00,
2013-09-16 07:07:00,37.9,37.7,29.44,North,0,6.9,6.9,99,0.00,CLR,,0.00,WeatherDisplay:10.37,2013-09-16 12:07:00,
2013-09-16 07:12:00,38.5,38.2,29.44,NE,45,6.9,6.9,99,0.00,CLR,,0.00,WeatherDisplay:10.37,2013-09-16 12:12:00,
2013-09-16 07:17:00,38.8,38.6,29.44,North,0,5.8,5.8,99,0.00,CLR,,0.00,WeatherDisplay:10.37,2013-09-16 12:17:00,
2013-09-16 07:22:00,38.7,38.4,29.44,North,0,6.9,6.9,99,0.00,CLR,,0.00,WeatherDisplay:10.37,2013-09-16 12:22:00,
2013-09-16 07:27:00,39.2,38.9,29.44,NE,45,6.9,6.9,99,0.00,CLR,,0.00,WeatherDisplay:10.37,2013-09-16 12:27:00,
2013-09-16 07:32:00,39.9,39.7,29.44,NE,45,6.9,6.9,99,0.00,CLR,,0.00,WeatherDisplay:10.37,2013-09-16 12:32:00,
2013-09-16 07:37:00,40.6,40.4,29.44,NE,45,5.8,5.8,99,0.00,CLR,,0.00,WeatherDisplay:10.37,2013-09-16 12:37:00,
2013-09-16 07:42:00,41.2,40.1,29.44,NE,45,5.8,5.8,96,0.00,CLR,,0.00,WeatherDisplay:10.37,2013-09-16 12:42:00,
2013-09-16 07:47:00,41.9,40.3,29.44,North,0,5.8,5.8,94,0.00,CLR,,0.00,WeatherDisplay:10.37,2013-09-16 12:47:00,
2013-09-16 07:52:00,42.6,40.2,29.44,NE,45,5.8,5.8,91,0.00,CLR,,0.00,WeatherDisplay:10.37,2013-09-16 12:52:00,
2013-09-16 07:57:00,43.2,40.4,29.44,NE,45,4.6,4.6,90,0.00,CLR,,0.00,WeatherDisplay:10.37,2013-09-16 12:57:00,
2013-09-16 08:02:00,43.5,40.5,29.44,North,0,5.4,5.4,89,0.00,CLR,,0.00,WeatherDisplay:10.37,2013-09-16 13:02:00,
2013-09-16 08:07:00,44.1,40.7,29.44,North,0,5.8,5.8,88,0.00,CLR,,0.00,WeatherDisplay:10.37,2013-09-16 13:07:00,
2013-09-16 08:12:00,44.8,41.1,29.44,NE,45,8.1,8.1,87,0.00,CLR,,0.00,WeatherDisplay:10.37,2013-09-16 13:12:00,
2013-09-16 08:17:00,45.3,41.1,29.44,NE,45,5.8,5.8,85,0.00,CLR,,0.00,WeatherDisplay:10.37,2013-09-16 13:17:00,
2013-09-16 08:22:00,45.3,40.8,29.45,NE,45,8.1,8.1,84,0.00,CLR,,0.00,WeatherDisplay:10.37,2013-09-16 13:22:00,
2013-09-16 08:27:00,45.9,41.3,29.45,North,0,5.8,5.8,84,0.00,CLR,,0.00,WeatherDisplay:10.37,2013-09-16 13:27:00,
2013-09-16 08:32:00,46.4,41.8,29.45,NE,45,3.5,3.5,84,0.00,CLR,,0.00,WeatherDisplay:10.37,2013-09-16 13:32:00,
2013-09-16 08:37:00,47.7,42.1,29.45,NE,45,6.0,6.0,81,0.00,CLR,,0.00,WeatherDisplay:10.37,2013-09-16 13:37:00,
2013-09-16 08:42:00,48.0,41.8,29.45,NE,45,5.8,5.8,79,0.00,CLR,,0.00,WeatherDisplay:10.37,2013-09-16 13:42:00,
2013-09-16 08:47:00,48.7,42.5,29.45,North,0,1.1,0.0,79,0.00,CLR,,0.00,WeatherDisplay:10.37,2013-09-16 13:47:00,
2013-09-16 08:52:00,50.7,43.4,29.45,NE,45,5.8,5.8,76,0.00,CLR,,0.00,WeatherDisplay:10.37,2013-09-16 13:52:00,
2013-09-16 08:57:00,50.7,42.7,29.45,NE,45,5.8,0.0,74,0.00,CLR,,0.00,WeatherDisplay:10.37,2013-09-16 13:57:00,
2013-09-16 09:02:00,50.7,42.4,29.45,NE,45,5.8,5.8,73,0.00,CLR,,0.00,WeatherDisplay:10.37,2013-09-16 14:02:00,
2013-09-16 09:07:00,50.5,42.6,29.46,NE,45,5.8,5.8,74,0.00,CLR,,0.00,WeatherDisplay:10.37,2013-09-16 14:07:00,
2013-09-16 09:12:00,51.3,42.9,29.46,North,0,5.8,5.8,73,0.00,CLR,,0.00,WeatherDisplay:10.37,2013-09-16 14:12:00,
2013-09-16 09:17:00,51.8,43.4,29.45,SE,135,5.8,5.8,73,0.00,CLR,,0.00,WeatherDisplay:10.37,2013-09-16 14:17:00,
2013-09-16 09:22:00,52.5,43.4,29.46,NW,315,4.6,4.6,71,0.00,CLR,,0.00,WeatherDisplay:10.37,2013-09-16 14:22:00,
2013-09-16 09:27:00,53.6,43.7,29.45,North,0,8.1,8.1,69,0.00,CLR,,0.00,WeatherDisplay:10.37,2013-09-16 14:27:00,
2013-09-16 09:32:00,53.8,43.1,29.46,NE,45,6.9,6.9,67,0.00,CLR,,0.00,WeatherDisplay:10.37,2013-09-16 14:32:00,
2013-09-16 09:37:00,53.6,43.7,29.46,ESE,112,5.8,5.8,69,0.00,CLR,,0.00,WeatherDisplay:10.37,2013-09-16 14:37:00,
2013-09-16 09:42:00,53.6,43.3,29.46,East,90,8.1,8.1,68,0.00,CLR,,0.00,WeatherDisplay:10.37,2013-09-16 14:42:00,
2013-09-16 09:47:00,52.9,43.0,29.46,East,90,5.4,5.4,69,0.00,CLR,,0.00,WeatherDisplay:10.37,2013-09-16 14:47:00,
2013-09-16 09:52:00,52.9,43.0,29.46,SE,135,8.1,8.1,69,0.00,CLR,,0.00,WeatherDisplay:10.37,2013-09-16 14:52:00,
2013-09-16 09:57:00,52.7,42.8,29.46,South,180,9.2,9.2,69,0.00,CLR,,0.00,WeatherDisplay:10.37,2013-09-16 14:57:00,
2013-09-16 10:02:00,53.2,43.3,29.46,SE,135,6.9,6.9,69,0.00,CLR,,0.00,WeatherDisplay:10.37,2013-09-16 15:02:00,
2013-09-16 10:07:00,54.1,43.8,29.46,NE,45,3.5,3.5,68,0.00,CLR,,0.00,WeatherDisplay:10.37,2013-09-16 15:07:00,
2013-09-16 10:12:00,55.4,44.2,29.46,SE,135,4.6,4.6,66,0.00,CLR,,0.00,WeatherDisplay:10.37,2013-09-16 15:12:00,
2013-09-16 10:17:00,54.7,43.9,29.46,East,90,11.5,11.5,67,0.00,CLR,,0.00,WeatherDisplay:10.37,2013-09-16 15:17:00,
2013-09-16 10:22:00,54.0,42.9,29.46,SE,135,0.0,0.0,66,0.00,CLR,,0.00,WeatherDisplay:10.37,2013-09-16 15:22:00,
2013-09-16 10:27:00,54.1,42.2,29.46,SE,135,1.1,0.0,64,0.00,CLR,,0.00,WeatherDisplay:10.37,2013-09-16 15:27:00,
2013-09-16 10:32:00,54.1,42.6,29.46,ESE,112,0.0,0.0,65,0.00,CLR,,0.00,WeatherDisplay:10.37,2013-09-16 15:32:00,
2013-09-16 10:37:00,54.5,42.2,29.46,SE,135,0.0,0.0,63,0.00,CLR,,0.00,WeatherDisplay:10.37,2013-09-16 15:37:00,
2013-09-16 10:42:00,54.3,42.8,29.46,SE,135,0.0,0.0,65,0.00,CLR,,0.00,WeatherDisplay:10.37,2013-09-16 15:42:00,
2013-09-16 10:47:00,55.2,42.8,29.45,SE,135,0.0,0.0,63,0.00,CLR,,0.00,WeatherDisplay:10.37,2013-09-16 15:47:00,
2013-09-16 10:52:00,55.4,41.7,29.46,SE,135,0.0,0.0,60,0.00,CLR,,0.00,WeatherDisplay:10.37,2013-09-16 15:52:00,
2013-09-16 10:57:00,55.2,41.6,29.46,SE,135,5.8,0.0,60,0.00,CLR,,0.00,WeatherDisplay:10.37,2013-09-16 15:57:00,
2013-09-16 11:02:00,55.6,41.5,29.45,SE,135,0.0,0.0,59,0.00,CLR,,0.00,WeatherDisplay:10.37,2013-09-16 16:02:00,
2013-09-16 11:07:00,55.8,42.5,29.45,NW,315,8.1,0.0,61,0.00,CLR,,0.00,WeatherDisplay:10.37,2013-09-16 16:07:00,
2013-09-16 11:12:00,56.7,43.4,29.45,SE,135,0.0,0.0,61,0.00,CLR,,0.00,WeatherDisplay:10.37,2013-09-16 16:12:00,
2013-09-16 11:17:00,56.5,41.4,29.45,East,90,0.0,0.0,57,0.00,CLR,,0.00,WeatherDisplay:10.37,2013-09-16 16:17:00,
2013-09-16 11:22:00,56.7,42.9,29.45,SE,135,0.0,0.0,60,0.00,CLR,,0.00,WeatherDisplay:10.37,2013-09-16 16:22:00,
2013-09-16 11:27:00,57.0,41.5,29.44,SSE,158,0.0,0.0,56,0.00,CLR,,0.00,WeatherDisplay:10.37,2013-09-16 16:27:00,
2013-09-16 11:32:00,57.0,41.9,29.44,SE,135,0.0,0.0,57,0.00,CLR,,0.00,WeatherDisplay:10.37,2013-09-16 16:32:00,
2013-09-16 11:37:00,56.5,41.9,29.44,SE,135,0.0,0.0,58,0.00,CLR,,0.00,WeatherDisplay:10.37,2013-09-16 16:37:00,
2013-09-16 11:42:00,57.7,43.1,29.44,SE,135,0.0,0.0,58,0.00,CLR,,0.00,WeatherDisplay:10.37,2013-09-16 16:42:00,
2013-09-16 11:47:00,57.6,41.0,29.44,SSE,158,0.0,0.0,54,0.00,CLR,,0.00,WeatherDisplay:10.37,2013-09-16 16:47:00,
2013-09-16 11:52:00,57.7,42.6,29.44,SE,135,0.0,0.0,57,0.00,CLR,,0.00,WeatherDisplay:10.37,2013-09-16 16:52:00,
2013-09-16 11:57:00,57.9,41.4,29.44,SE,135,0.0,0.0,54,0.00,CLR,,0.00,WeatherDisplay:10.37,2013-09-16 16:57:00,
2013-09-16 12:02:00,57.7,42.1,29.44,East,90,0.0,0.0,56,0.00,CLR,,0.00,WeatherDisplay:10.37,2013-09-16 17:02:00,
2013-09-16 12:07:00,58.6,42.5,29.44,SE,135,0.0,0.0,55,0.00,CLR,,0.00,WeatherDisplay:10.37,2013-09-16 17:07:00,
2013-09-16 12:12:00,58.6,42.0,29.44,SE,135,0.0,0.0,54,0.00,CLR,,0.00,WeatherDisplay:10.37,2013-09-16 17:12:00,
2013-09-16 12:17:00,59.0,41.9,29.44,SE,135,0.0,0.0,53,0.00,CLR,,0.00,WeatherDisplay:10.37,2013-09-16 17:17:00,
2013-09-16 12:22:00,58.6,42.5,29.44,SE,135,0.0,0.0,55,0.00,CLR,,0.00,WeatherDisplay:10.37,2013-09-16 17:22:00,
2013-09-16 12:27:00,58.8,43.6,29.44,SE,135,0.0,0.0,57,0.00,CLR,,0.00,WeatherDisplay:10.37,2013-09-16 17:27:00,
2013-09-16 12:32:00,59.2,41.6,29.44,SE,135,0.0,0.0,52,0.00,CLR,,0.00,WeatherDisplay:10.37,2013-09-16 17:32:00,
2013-09-16 12:37:00,59.5,39.3,29.43,SE,135,0.0,0.0,47,0.00,CLR,,0.00,WeatherDisplay:10.37,2013-09-16 17:37:00,
2013-09-16 12:42:00,59.9,39.1,29.44,East,90,0.0,0.0,46,0.00,CLR,,0.00,WeatherDisplay:10.37,2013-09-16 17:42:00,
2013-09-16 12:47:00,60.4,41.7,29.44,SE,135,0.0,0.0,50,0.00,CLR,,0.00,WeatherDisplay:10.37,2013-09-16 17:47:00,
2013-09-16 12:52:00,60.6,40.8,29.44,SE,135,0.0,0.0,48,0.00,CLR,,0.00,WeatherDisplay:10.37,2013-09-16 17:52:00,
2013-09-16 12:57:00,61.3,40.9,29.43,South,180,0.0,0.0,47,0.00,CLR,,0.00,WeatherDisplay:10.37,2013-09-16 17:57:00,
2013-09-16 13:02:00,61.5,41.1,29.43,SE,135,0.0,0.0,47,0.00,CLR,,0.00,WeatherDisplay:10.37,2013-09-16 18:02:00,
2013-09-16 13:07:00,61.5,41.6,29.43,South,180,0.0,0.0,48,0.00,CLR,,0.00,WeatherDisplay:10.37,2013-09-16 18:07:00,
2013-09-16 13:12:00,60.6,40.8,29.43,South,180,0.0,0.0,48,0.00,CLR,,0.00,WeatherDisplay:10.37,2013-09-16 18:12:00,
2013-09-16 13:17:00,60.6,41.3,29.43,South,180,0.0,0.0,49,0.00,CLR,,0.00,WeatherDisplay:10.37,2013-09-16 18:17:00,
2013-09-16 13:22:00,62.1,41.0,29.43,South,180,0.0,0.0,46,0.00,CLR,,0.00,WeatherDisplay:10.37,2013-09-16 18:22:00,
2013-09-16 13:27:00,61.9,40.9,29.43,South,180,0.0,0.0,46,0.00,CLR,,0.00,WeatherDisplay:10.37,2013-09-16 18:27:00,
2013-09-16 13:32:00,62.2,41.2,29.42,SW,225,4.6,4.6,46,0.00,CLR,,0.00,WeatherDisplay:10.37,2013-09-16 18:32:00,
2013-09-16 13:37:00,65.3,43.4,29.42,North,0,1.1,0.0,45,0.00,CLR,,0.00,WeatherDisplay:10.37,2013-09-16 18:37:00,
2013-09-16 13:42:00,65.5,42.4,29.42,South,180,0.0,0.0,43,0.00,CLR,,0.00,WeatherDisplay:10.37,2013-09-16 18:42:00,
2013-09-16 13:47:00,62.2,40.6,29.42,South,180,0.0,0.0,45,0.00,CLR,,0.00,WeatherDisplay:10.37,2013-09-16 18:47:00,
2013-09-16 13:52:00,64.6,42.7,29.42,South,180,0.0,0.0,45,0.00,CLR,,0.00,WeatherDisplay:10.37,2013-09-16 18:52:00,
2013-09-16 13:57:00,64.6,41.6,29.41,South,180,0.0,0.0,43,0.00,CLR,,0.00,WeatherDisplay:10.37,2013-09-16 18:57:00,
2013-09-16 14:02:00,65.3,42.2,29.41,South,180,0.0,0.0,43,0.00,CLR,,0.00,WeatherDisplay:10.37,2013-09-16 19:02:00,
2013-09-16 14:07:00,66.2,42.4,29.41,South,180,0.0,0.0,42,0.00,CLR,,0.00,WeatherDisplay:10.37,2013-09-16 19:07:00,
2013-09-16 14:12:00,64.8,40.5,29.41,SE,135,0.0,0.0,41,0.00,CLR,,0.00,WeatherDisplay:10.37,2013-09-16 19:12:00,
2013-09-16 14:17:00,64.4,40.2,29.41,South,180,0.0,0.0,41,0.00,CLR,,0.00,WeatherDisplay:10.37,2013-09-16 19:17:00,
2013-09-16 14:22:00,64.4,40.2,29.41,South,180,0.0,0.0,41,0.00,CLR,,0.00,WeatherDisplay:10.37,2013-09-16 19:22:00,
2013-09-16 14:27:00,64.6,39.0,29.40,South,180,0.0,0.0,39,0.00,CLR,,0.00,WeatherDisplay:10.37,2013-09-16 19:27:00,
2013-09-16 14:32:00,64.8,39.9,29.40,West,270,4.6,4.6,40,0.00,CLR,,0.00,WeatherDisplay:10.37,2013-09-16 19:32:00,
2013-09-16 14:37:00,65.8,40.2,29.40,SE,135,4.6,4.6,39,0.00,CLR,,0.00,WeatherDisplay:10.37,2013-09-16 19:37:00,
2013-09-16 14:42:00,66.4,40.7,29.39,SE,135,4.6,4.6,39,0.00,CLR,,0.00,WeatherDisplay:10.37,2013-09-16 19:42:00,
2013-09-16 14:47:00,65.8,39.5,29.39,South,180,0.0,0.0,38,0.00,CLR,,0.00,WeatherDisplay:10.37,2013-09-16 19:47:00,
2013-09-16 14:52:00,64.8,40.5,29.39,South,180,0.0,0.0,41,0.00,CLR,,0.00,WeatherDisplay:10.37,2013-09-16 19:52:00,
2013-09-16 14:57:00,65.3,39.7,29.39,South,180,0.0,0.0,39,0.00,CLR,,0.00,WeatherDisplay:10.37,2013-09-16 19:57:00,
2013-09-16 15:02:00,66.4,41.3,29.39,South,180,0.0,0.0,40,0.00,CLR,,0.00,WeatherDisplay:10.37,2013-09-16 20:02:00,
2013-09-16 15:07:00,67.3,40.1,29.38,SE,135,4.6,4.6,37,0.00,CLR,,0.00,WeatherDisplay:10.37,2013-09-16 20:07:00,
2013-09-16 15:12:00,66.4,39.3,29.39,South,180,0.0,0.0,37,0.00,CLR,,0.00,WeatherDisplay:10.37,2013-09-16 20:12:00,
2013-09-16 15:17:00,66.7,41.0,29.38,South,180,0.0,0.0,39,0.00,CLR,,0.00,WeatherDisplay:10.37,2013-09-16 20:17:00,
2013-09-16 15:22:00,66.6,40.1,29.38,NE,45,0.0,0.0,38,0.00,CLR,,0.00,WeatherDisplay:10.37,2013-09-16 20:22:00,
2013-09-16 15:27:00,68.4,40.4,29.38,East,90,1.1,0.0,36,0.00,CLR,,0.00,WeatherDisplay:10.37,2013-09-16 20:27:00,
2013-09-16 15:32:00,69.3,39.7,29.38,South,180,0.0,0.0,34,0.00,CLR,,0.00,WeatherDisplay:10.37,2013-09-16 20:32:00,
2013-09-16 15:37:00,69.1,40.3,29.38,East,90,0.0,0.0,35,0.00,CLR,,0.00,WeatherDisplay:10.37,2013-09-16 20:37:00,
2013-09-16 15:42:00,70.0,39.5,29.37,South,180,0.0,0.0,33,0.00,CLR,,0.00,WeatherDisplay:10.37,2013-09-16 20:42:00,
2013-09-16 15:47:00,69.4,39.1,29.37,SE,135,0.0,0.0,33,0.00,CLR,,0.00,WeatherDisplay:10.37,2013-09-16 20:47:00,
2013-09-16 15:52:00,70.3,39.9,29.37,South,180,0.0,0.0,33,0.00,CLR,,0.00,WeatherDisplay:10.37,2013-09-16 20:52:00,
2013-09-16 15:57:00,69.3,39.7,29.37,SE,135,0.0,0.0,34,0.00,CLR,,0.00,WeatherDisplay:10.37,2013-09-16 20:57:00,
2013-09-16 16:02:00,68.0,38.6,29.37,South,180,0.0,0.0,34,0.00,CLR,,0.00,WeatherDisplay:10.37,2013-09-16 21:02:00,
2013-09-16 16:07:00,68.9,38.6,29.37,SE,135,0.0,0.0,33,0.00,CLR,,0.00,WeatherDisplay:10.37,2013-09-16 21:07:00,
2013-09-16 16:12:00,70.0,39.5,29.36,SW,225,0.0,0.0,33,0.00,CLR,,0.00,WeatherDisplay:10.37,2013-09-16 21:12:00,
2013-09-16 16:17:00,69.8,42.3,29.36,SE,135,0.0,0.0,37,0.00,CLR,,0.00,WeatherDisplay:10.37,2013-09-16 21:17:00,
2013-09-16 16:22:00,68.9,38.6,29.36,SE,135,0.0,0.0,33,0.00,CLR,,0.00,WeatherDisplay:10.37,2013-09-16 21:22:00,
2013-09-16 16:27:00,69.4,39.1,29.36,East,90,0.0,0.0,33,0.00,CLR,,0.00,WeatherDisplay:10.37,2013-09-16 21:27:00,
2013-09-16 16:32:00,69.4,39.1,29.36,SE,135,0.0,0.0,33,0.00,CLR,,0.00,WeatherDisplay:10.37,2013-09-16 21:32:00,
2013-09-16 16:37:00,69.4,38.3,29.36,South,180,0.0,0.0,32,0.00,CLR,,0.00,WeatherDisplay:10.37,2013-09-16 21:37:00,
2013-09-16 16:42:00,69.4,39.1,29.36,SE,135,0.0,0.0,33,0.00,CLR,,0.00,WeatherDisplay:10.37,2013-09-16 21:42:00,
2013-09-16 16:47:00,70.2,39.7,29.35,SE,135,0.0,0.0,33,0.00,CLR,,0.00,WeatherDisplay:10.37,2013-09-16 21:47:00,
2013-09-16 16:52:00,69.8,40.9,29.36,South,180,0.0,0.0,35,0.00,CLR,,0.00,WeatherDisplay:10.37,2013-09-16 21:52:00,
2013-09-16 16:57:00,70.3,39.1,29.35,SE,135,0.0,0.0,32,0.00,CLR,,0.00,WeatherDisplay:10.37,2013-09-16 21:57:00,
2013-09-16 17:02:00,70.2,39.7,29.34,SE,135,0.0,0.0,33,0.00,CLR,,0.00,WeatherDisplay:10.37,2013-09-16 22:02:00,
2013-09-16 17:07:00,70.3,39.9,29.34,SE,135,0.0,0.0,33,0.00,CLR,,0.00,WeatherDisplay:10.37,2013-09-16 22:07:00,
2013-09-16 17:12:00,71.6,39.3,29.34,North,0,0.0,0.0,31,0.00,CLR,,0.00,WeatherDisplay:10.37,2013-09-16 22:12:00,
2013-09-16 17:17:00,72.1,38.1,29.35,SE,135,0.0,0.0,29,0.00,CLR,,0.00,WeatherDisplay:10.37,2013-09-16 22:17:00,
2013-09-16 17:22:00,71.8,39.5,29.34,SE,135,0.0,0.0,31,0.00,CLR,,0.00,WeatherDisplay:10.37,2013-09-16 22:22:00,
2013-09-16 17:27:00,70.7,40.2,29.34,NE,45,0.0,0.0,33,0.00,CLR,,0.00,WeatherDisplay:10.37,2013-09-16 22:27:00,
2013-09-16 17:32:00,71.1,41.3,29.34,SE,135,0.0,0.0,34,0.00,CLR,,0.00,WeatherDisplay:10.37,2013-09-16 22:32:00,
2013-09-16 17:37:00,69.8,41.6,29.33,East,90,0.0,0.0,36,0.00,CLR,,0.00,WeatherDisplay:10.37,2013-09-16 22:37:00,
2013-09-16 17:42:00,69.6,40.7,29.33,SE,135,0.0,0.0,35,0.00,CLR,,0.00,WeatherDisplay:10.37,2013-09-16 22:42:00,
2013-09-16 17:47:00,69.1,41.0,29.34,SE,135,6.9,6.9,36,0.00,CLR,,0.00,WeatherDisplay:10.37,2013-09-16 22:47:00,
2013-09-16 17:52:00,68.5,41.2,29.33,NW,315,5.8,5.8,37,0.00,CLR,,0.00,WeatherDisplay:10.37,2013-09-16 22:52:00,
2013-09-16 17:57:00,68.7,39.9,29.33,East,90,5.8,5.8,35,0.00,CLR,,0.00,WeatherDisplay:10.37,2013-09-16 22:57:00,
2013-09-16 18:02:00,69.4,39.8,29.33,South,180,3.5,0.0,34,0.00,CLR,,0.00,WeatherDisplay:10.37,2013-09-16 23:02:00,
2013-09-16 18:07:00,69.8,39.4,29.33,East,90,2.3,2.3,33,0.00,CLR,,0.00,WeatherDisplay:10.37,2013-09-16 23:07:00,
2013-09-16 18:12:00,69.4,38.3,29.33,NE,45,3.5,3.5,32,0.00,CLR,,0.00,WeatherDisplay:10.37,2013-09-16 23:12:00,
2013-09-16 18:17:00,68.9,38.6,29.33,East,90,0.0,0.0,33,0.00,CLR,,0.00,WeatherDisplay:10.37,2013-09-16 23:17:00,
2013-09-16 18:22:00,68.7,39.2,29.33,East,90,0.0,0.0,34,0.00,CLR,,0.00,WeatherDisplay:10.37,2013-09-16 23:22:00,
2013-09-16 18:27:00,68.5,39.8,29.33,NE,45,0.0,0.0,35,0.00,CLR,,0.00,WeatherDisplay:10.37,2013-09-16 23:27:00,
2013-09-16 18:32:00,68.2,39.5,29.33,East,90,0.0,0.0,35,0.00,CLR,,0.00,WeatherDisplay:10.37,2013-09-16 23:32:00,
2013-09-16 18:37:00,67.6,39.7,29.32,NNW,338,0.0,0.0,36,0.00,CLR,,0.00,WeatherDisplay:10.37,2013-09-16 23:37:00,
2013-09-16 18:42:00,67.5,40.3,29.32,NE,45,3.5,0.0,37,0.00,CLR,,0.00,WeatherDisplay:10.37,2013-09-16 23:42:00,
2013-09-16 18:47:00,67.1,39.9,29.33,NW,315,3.5,3.5,37,0.00,CLR,,0.00,WeatherDisplay:10.37,2013-09-16 23:47:00,
2013-09-16 18:52:00,66.4,40.7,29.32,NE,45,2.3,0.0,39,0.00,CLR,,0.00,WeatherDisplay:10.37,2013-09-16 23:52:00,
2013-09-16 18:57:00,64.9,40.0,29.33,East,90,3.5,0.0,40,0.00,CLR,,0.00,WeatherDisplay:10.37,2013-09-16 23:57:00,
2013-09-16 19:02:00,65.3,42.2,29.32,NE,45,0.0,0.0,43,0.00,CLR,,0.00,WeatherDisplay:10.37,2013-09-17 00:02:00,
2013-09-16 19:07:00,63.5,42.9,29.31,North,0,0.0,0.0,47,0.00,CLR,,0.00,WeatherDisplay:10.37,2013-09-17 00:07:00,
2013-09-16 19:12:00,60.8,41.5,29.32,NE,45,0.0,0.0,49,0.00,CLR,,0.00,WeatherDisplay:10.37,2013-09-17 00:12:00,
2013-09-16 19:17:00,60.1,41.9,29.31,ESE,112,0.0,0.0,51,0.00,CLR,,0.00,WeatherDisplay:10.37,2013-09-17 00:17:00,
2013-09-16 19:22:00,59.4,41.2,29.31,NE,45,0.0,0.0,51,0.00,CLR,,0.00,WeatherDisplay:10.37,2013-09-17 00:22:00,
2013-09-16 19:27:00,58.8,41.7,29.31,East,90,0.0,0.0,53,0.00,CLR,,0.00,WeatherDisplay:10.37,2013-09-17 00:27:00,
2013-09-16 19:32:00,58.5,41.9,29.32,NE,45,0.0,0.0,54,0.00,CLR,,0.00,WeatherDisplay:10.37,2013-09-17 00:32:00,
2013-09-16 19:37:00,57.9,41.8,29.32,NE,45,0.0,0.0,55,0.00,CLR,,0.00,WeatherDisplay:10.37,2013-09-17 00:37:00,
2013-09-16 19:42:00,57.6,41.5,29.32,NE,45,1.1,0.0,55,0.00,CLR,,0.00,WeatherDisplay:10.37,2013-09-17 00:42:00,
2013-09-16 19:47:00,57.7,41.2,29.32,NE,45,0.0,0.0,54,0.00,CLR,,0.00,WeatherDisplay:10.37,2013-09-17 00:47:00,
2013-09-16 19:52:00,57.7,41.7,29.32,East,90,0.0,0.0,55,0.00,CLR,,0.00,WeatherDisplay:10.37,2013-09-17 00:52:00,
2013-09-16 19:57:00,57.4,41.3,29.32,North,0,0.0,0.0,55,0.00,CLR,,0.00,WeatherDisplay:10.37,2013-09-17 00:57:00,
2013-09-16 20:02:00,56.8,41.3,29.32,NE,45,0.0,0.0,56,0.00,CLR,,0.00,WeatherDisplay:10.37,2013-09-17 01:02:00,
2013-09-16 20:07:00,56.8,41.3,29.33,NE,45,0.0,0.0,56,0.00,CLR,,0.00,WeatherDisplay:10.37,2013-09-17 01:07:00,
2013-09-16 20:12:00,56.3,41.7,29.32,East,90,0.0,0.0,58,0.00,CLR,,0.00,WeatherDisplay:10.37,2013-09-17 01:12:00,
2013-09-16 20:17:00,56.1,42.0,29.33,NE,45,0.0,0.0,59,0.00,CLR,,0.00,WeatherDisplay:10.37,2013-09-17 01:17:00,
2013-09-16 20:22:00,56.1,42.0,29.33,East,90,0.0,0.0,59,0.00,CLR,,0.00,WeatherDisplay:10.37,2013-09-17 01:22:00,
2013-09-16 20:27:00,55.9,42.2,29.33,East,90,0.0,0.0,60,0.00,CLR,,0.00,WeatherDisplay:10.37,2013-09-17 01:27:00,
2013-09-16 20:32:00,55.9,42.2,29.33,East,90,0.0,0.0,60,0.00,CLR,,0.00,WeatherDisplay:10.37,2013-09-17 01:32:00,
2013-09-16 20:37:00,55.9,42.2,29.33,SE,135,0.0,0.0,60,0.00,CLR,,0.00,WeatherDisplay:10.37,2013-09-17 01:37:00,
2013-09-16 20:42:00,55.8,42.1,29.33,North,0,0.0,0.0,60,0.00,CLR,,0.00,WeatherDisplay:10.37,2013-09-17 01:42:00,
2013-09-16 20:47:00,55.6,42.3,29.33,SE,135,0.0,0.0,61,0.00,CLR,,0.00,WeatherDisplay:10.37,2013-09-17 01:47:00,
2013-09-16 20:52:00,55.6,42.8,29.33,NE,45,0.0,0.0,62,0.00,CLR,,0.00,WeatherDisplay:10.37,2013-09-17 01:52:00,
2013-09-16 20:57:00,55.6,42.8,29.33,SE,135,0.0,0.0,62,0.00,CLR,,0.00,WeatherDisplay:10.37,2013-09-17 01:57:00,
2013-09-16 21:02:00,55.6,43.2,29.33,East,90,0.0,0.0,63,0.00,CLR,,0.00,WeatherDisplay:10.37,2013-09-17 02:02:00,
2013-09-16 21:07:00,55.4,43.8,29.33,SE,135,2.3,2.3,65,0.00,CLR,,0.00,WeatherDisplay:10.37,2013-09-17 02:07:00,
2013-09-16 21:12:00,55.4,44.2,29.33,East,90,3.5,3.5,66,0.00,CLR,,0.00,WeatherDisplay:10.37,2013-09-17 02:12:00,
2013-09-16 21:17:00,55.6,44.0,29.32,SE,135,0.0,0.0,65,0.00,CLR,,0.00,WeatherDisplay:10.37,2013-09-17 02:17:00,
2013-09-16 21:22:00,55.4,43.4,29.32,East,90,0.0,0.0,64,0.00,CLR,,0.00,WeatherDisplay:10.37,2013-09-17 02:22:00,
2013-09-16 21:27:00,55.4,43.4,29.33,East,90,0.0,0.0,64,0.00,CLR,,0.00,WeatherDisplay:10.37,2013-09-17 02:27:00,
2013-09-16 21:32:00,55.4,43.8,29.32,SE,135,3.5,3.5,65,0.00,CLR,,0.00,WeatherDisplay:10.37,2013-09-17 02:32:00,
2013-09-16 21:37:00,55.6,45.2,29.32,SE,135,0.0,0.0,68,0.00,CLR,,0.00,WeatherDisplay:10.37,2013-09-17 02:37:00,
2013-09-16 21:42:00,55.8,45.0,29.32,SE,135,8.1,8.1,67,0.00,CLR,,0.00,WeatherDisplay:10.37,2013-09-17 02:42:00,
2013-09-16 21:47:00,55.9,45.1,29.32,SE,135,0.0,0.0,67,0.00,CLR,,0.00,WeatherDisplay:10.37,2013-09-17 02:47:00,
2013-09-16 21:52:00,55.6,45.2,29.32,SE,135,0.0,0.0,68,0.00,CLR,,0.00,WeatherDisplay:10.37,2013-09-17 02:52:00,
2013-09-16 21:57:00,55.4,45.0,29.32,SE,135,1.1,0.0,68,0.00,CLR,,0.00,WeatherDisplay:10.37,2013-09-17 02:57:00,
2013-09-16 22:02:00,55.2,44.8,29.32,East,90,0.0,0.0,68,0.00,CLR,,0.00,WeatherDisplay:10.37,2013-09-17 03:02:00,
2013-09-16 22:07:00,55.2,44.8,29.32,East,90,0.0,0.0,68,0.00,CLR,,0.00,WeatherDisplay:10.37,2013-09-17 03:07:00,
2013-09-16 22:12:00,54.3,44.7,29.32,SE,135,5.8,0.0,70,0.00,CLR,,0.00,WeatherDisplay:10.37,2013-09-17 03:12:00,
2013-09-16 22:17:00,54.5,45.3,29.32,NE,45,0.0,0.0,71,0.00,CLR,,0.00,WeatherDisplay:10.37,2013-09-17 03:17:00,
2013-09-16 22:22:00,54.9,45.6,29.33,SE,135,1.1,0.0,71,0.00,CLR,,0.00,WeatherDisplay:10.37,2013-09-17 03:22:00,
2013-09-16 22:27:00,55.6,46.3,29.33,SE,135,1.1,0.0,71,0.00,CLR,,0.00,WeatherDisplay:10.37,2013-09-17 03:27:00,
2013-09-16 22:32:00,55.4,46.9,29.33,SE,135,11.5,11.5,73,0.00,CLR,,0.00,WeatherDisplay:10.37,2013-09-17 03:32:00,
2013-09-16 22:37:00,55.0,46.2,29.32,South,180,0.0,0.0,72,0.00,CLR,,0.00,WeatherDisplay:10.37,2013-09-17 03:37:00,
2013-09-16 22:42:00,55.0,45.4,29.33,East,90,1.1,0.0,70,0.00,CLR,,0.00,WeatherDisplay:10.37,2013-09-17 03:42:00,
2013-09-16 22:47:00,55.4,45.0,29.33,East,90,1.1,7.6,68,0.00,CLR,,0.00,WeatherDisplay:10.37,2013-09-17 03:47:00,
2013-09-16 22:52:00,55.2,45.2,29.33,South,180,12.7,12.7,69,0.00,CLR,,0.00,WeatherDisplay:10.37,2013-09-17 03:52:00,
2013-09-16 22:57:00,55.0,45.8,29.33,SE,135,11.4,11.4,71,0.00,CLR,,0.00,WeatherDisplay:10.37,2013-09-17 03:57:00,
2013-09-16 23:01:00,55.0,45.8,29.33,SE,135,15.0,15.0,71,0.00,CLR,,0.00,WeatherDisplay:10.37,2013-09-17 04:01:00,
2013-09-16 23:06:00,55.0,45.8,29.33,SE,135,15.0,15.0,71,0.00,CLR,,0.00,WeatherDisplay:10.37,2013-09-17 04:06:00,
2013-09-16 23:11:00,54.5,44.5,29.33,SE,135,11.5,0.0,69,0.00,CLR,,0.00,WeatherDisplay:10.37,2013-09-17 04:11:00,
2013-09-16 23:16:00,54.3,45.1,29.32,SE,135,1.1,0.0,71,0.00,CLR,,0.00,WeatherDisplay:10.37,2013-09-17 04:16:00,
2013-09-16 23:21:00,54.3,45.8,29.33,SE,135,12.7,0.0,73,0.00,CLR,,0.00,WeatherDisplay:10.37,2013-09-17 04:21:00,
2013-09-16 23:26:00,54.1,45.3,29.33,SE,135,1.1,0.0,72,0.00,CLR,,0.00,WeatherDisplay:10.37,2013-09-17 04:26:00,
2013-09-16 23:31:00,54.1,45.7,29.33,South,180,9.2,9.2,73,0.00,CLR,,0.00,WeatherDisplay:10.37,2013-09-17 04:31:00,
2013-09-16 23:36:00,54.1,44.6,29.33,SE,135,9.2,0.0,70,0.00,CLR,,0.00,WeatherDisplay:10.37,2013-09-17 04:36:00,
2013-09-16 23:41:00,54.0,45.5,29.33,SSE,158,1.1,0.0,73,0.00,CLR,,0.00,WeatherDisplay:10.37,2013-09-17 04:41:00,
2013-09-16 23:46:00,53.8,44.6,29.33,SE,135,1.1,0.0,71,0.00,CLR,,0.00,WeatherDisplay:10.37,2013-09-17 04:46:00,
2013-09-16 23:51:00,53.6,45.2,29.33,SE,135,16.1,0.0,73,0.00,CLR,,0.00,WeatherDisplay:10.37,2013-09-17 04:51:00,
2013-09-16 23:56:00,53.4,45.0,29.33,SSE,158,11.5,0.0,73,0.00,CLR,,0.00,WeatherDisplay:10.37,2013-09-17 04:56:00,